Time;durP1;ratioP1;P1;durP2;ratioP2;P2;SDS_P1;SDS_P2;PMS_P1;PMS_P2;Temp;Humidity;BMP_temperature;BMP_pressure;BME280_temperature;BME280_humidity;BME280_pressure;Samples;Min_cycle;Max_cycle;Signal;HPM_P1;HPM_P2
2021/12/31 00:00:11;;;;;;;2.13;1.33;;;19.20;61.50;;;;;;5013721;28;20026;-71
2021/12/31 00:02:37;;;;;;;2.63;1.70;;;19.20;61.50;;;;;;5013615;28;20064;-71
2021/12/31 00:05:03;;;;;;;3.15;1.70;;;19.20;61.50;;;;;;5012393;28;20060;-71
2021/12/31 00:07:29;;;;;;;2.63;1.60;;;19.20;61.50;;;;;;5013451;28;20050;-71
2021/12/31 00:09:59;;;;;;;3.15;1.70;;;19.20;61.50;;;;;;5012294;28;20026;-71
2021/12/31 00:12:25;;;;;;;3.17;1.60;;;19.20;61.50;;;;;;5013673;28;20470;-71
2021/12/31 00:14:50;;;;;;;3.00;1.63;;;19.20;61.50;;;;;;5013497;28;20026;-71
2021/12/31 00:17:16;;;;;;;1.73;1.20;;;19.10;61.50;;;;;;5012892;28;20040;-71
2021/12/31 00:19:45;;;;;;;2.75;1.42;;;19.20;61.50;;;;;;4993799;28;20049;-71
2021/12/31 00:22:38;;;;;;;3.22;1.63;;;19.10;61.50;;;;;;4992484;28;20118;-71
2021/12/31 00:24:59;;;;;;;1.50;1.10;;;19.10;61.50;;;;;;4993564;28;20391;-71
2021/12/31 00:27:25;;;;;;;2.72;1.50;;;19.10;61.50;;;;;;4992451;28;20037;-71
2021/12/31 00:29:51;;;;;;;1.75;1.35;;;19.10;61.50;;;;;;5007075;28;20032;-71
2021/12/31 00:32:18;;;;;;;3.85;1.30;;;19.10;61.50;;;;;;5013120;28;20107;-71
2021/12/31 00:34:44;;;;;;;3.30;1.33;;;19.10;61.50;;;;;;5013065;28;20072;-71
2021/12/31 00:37:09;;;;;;;1.50;1.38;;;19.10;61.50;;;;;;5013105;28;20026;-71
2021/12/31 00:39:35;;;;;;;2.08;1.48;;;19.10;61.50;;;;;;5011750;28;20125;-71
2021/12/31 00:42:00;;;;;;;3.05;1.65;;;19.10;61.50;;;;;;5013011;28;20084;-71
2021/12/31 00:44:26;;;;;;;2.83;1.23;;;19.10;61.50;;;;;;5013051;28;20045;-71
2021/12/31 00:46:51;;;;;;;1.67;1.40;;;19.10;61.50;;;;;;5012945;28;20033;-71
2021/12/31 00:49:17;;;;;;;3.80;1.40;;;19.10;61.50;;;;;;5011661;28;20037;-71
2021/12/31 00:51:42;;;;;;;2.53;1.20;;;19.10;61.50;;;;;;5012980;28;20018;-71
2021/12/31 00:54:08;;;;;;;2.10;1.30;;;19.10;61.50;;;;;;5012853;28;20025;-71
2021/12/31 00:56:33;;;;;;;1.65;1.20;;;19.10;61.50;;;;;;5012054;28;20116;-71
2021/12/31 00:59:00;;;;;;;4.22;1.40;;;19.10;61.50;;;;;;5011585;28;20033;-71
2021/12/31 01:01:26;;;;;;;5.82;1.50;;;19.10;61.50;;;;;;5012930;28;20390;-71
2021/12/31 01:03:51;;;;;;;1.95;1.20;;;19.20;61.50;;;;;;5012678;28;20028;-71
2021/12/31 01:06:17;;;;;;;2.22;1.40;;;19.20;61.50;;;;;;5012578;28;20509;-71
2021/12/31 01:08:43;;;;;;;2.53;1.50;;;19.10;61.60;;;;;;5011424;28;20014;-71
2021/12/31 01:11:09;;;;;;;2.60;1.30;;;19.10;61.50;;;;;;5012769;28;20025;-71
2021/12/31 01:13:52;;;;;;;2.40;1.33;;;19.10;61.50;;;;;;5011395;28;20551;-71
2021/12/31 01:16:19;;;;;;;2.97;1.33;;;19.10;61.50;;;;;;5012828;28;20097;-71
2021/12/31 01:21:21;;;;;;;2.33;1.20;;;19.10;61.50;;;;;;4993319;28;20498;-71
2021/12/31 01:23:48;;;;;;;1.67;1.20;;;19.10;61.50;;;;;;4992883;28;20376;-71
2021/12/31 01:26:14;;;;;;;2.30;1.30;;;19.10;61.50;;;;;;4991695;28;20023;-71
2021/12/31 01:28:39;;;;;;;2.95;1.30;;;19.10;61.50;;;;;;4996710;28;20018;-71
2021/12/31 01:31:05;;;;;;;2.40;1.30;;;19.10;62.40;;;;;;5004442;28;20050;-71
2021/12/31 01:33:30;;;;;;;4.38;1.52;;;19.10;61.50;;;;;;4992945;28;20434;-71
2021/12/31 01:35:56;;;;;;;2.72;1.10;;;19.10;62.40;;;;;;5007933;28;20130;-71
2021/12/31 01:38:22;;;;;;;1.88;1.30;;;19.10;61.60;;;;;;4994371;28;20018;-71
2021/12/31 01:40:49;;;;;;;1.52;1.05;;;19.10;61.60;;;;;;5012455;28;20097;-71
2021/12/31 01:43:15;;;;;;;1.67;1.08;;;19.10;61.50;;;;;;5012478;28;20026;-71
2021/12/31 01:45:47;;;;;;;1.67;1.10;;;19.10;61.60;;;;;;5011058;28;20030;-71
2021/12/31 01:48:25;;;;;;;1.77;1.20;;;19.10;61.50;;;;;;5016056;28;20502;-71
2021/12/31 01:50:52;;;;;;;2.22;1.20;;;19.10;61.50;;;;;;5016247;28;20014;-71
2021/12/31 01:53:19;;;;;;;1.83;1.27;;;19.10;61.50;;;;;;5016169;28;20487;-71
2021/12/31 01:55:45;;;;;;;2.53;1.23;;;19.10;61.50;;;;;;5016046;28;20022;-71
2021/12/31 01:58:12;;;;;;;2.58;1.20;;;19.10;61.50;;;;;;5016056;28;20037;-71
2021/12/31 02:00:38;;;;;;;3.55;1.27;;;19.10;61.50;;;;;;5016071;28;20447;-71
2021/12/31 02:03:06;;;;;;;1.23;1.02;;;19.10;61.50;;;;;;5015852;28;20469;-71
2021/12/31 02:05:32;;;;;;;1.60;1.10;;;19.10;61.50;;;;;;5015771;28;20029;-71
2021/12/31 02:07:59;;;;;;;1.95;1.10;;;19.10;61.50;;;;;;5014548;28;20045;-71
2021/12/31 02:10:25;;;;;;;3.55;1.38;;;19.10;61.50;;;;;;5015836;28;20053;-71
2021/12/31 02:12:52;;;;;;;2.13;1.20;;;19.10;61.50;;;;;;5015703;28;20026;-71
2021/12/31 02:15:19;;;;;;;3.30;1.02;;;19.10;61.50;;;;;;5015764;28;20022;-71
2021/12/31 02:17:47;;;;;;;2.85;1.27;;;19.10;61.50;;;;;;5015668;28;20101;-71
2021/12/31 02:20:14;;;;;;;2.58;1.20;;;19.10;61.40;;;;;;5015701;28;20080;-71
2021/12/31 02:22:45;;;;;;;2.28;1.30;;;19.10;61.50;;;;;;5015696;28;20104;-71
2021/12/31 02:25:10;;;;;;;1.60;1.00;;;19.10;61.40;;;;;;5015491;28;20481;-71
2021/12/31 02:27:40;;;;;;;2.45;1.25;;;19.10;61.50;;;;;;5015579;28;20030;-71
2021/12/31 02:30:08;;;;;;;2.70;1.27;;;19.10;61.40;;;;;;5015283;28;20025;-71
2021/12/31 02:32:34;;;;;;;1.15;1.00;;;19.10;61.40;;;;;;5015440;28;20014;-71
2021/12/31 02:34:59;;;;;;;2.22;1.02;;;19.10;61.40;;;;;;5015342;28;20037;-71
2021/12/31 02:37:25;;;;;;;2.38;0.90;;;19.10;61.40;;;;;;5015267;28;20080;-71
2021/12/31 02:39:51;;;;;;;1.77;1.13;;;19.10;61.40;;;;;;5015404;28;20386;-71
2021/12/31 02:42:16;;;;;;;1.52;1.00;;;19.10;61.40;;;;;;5015173;28;20030;-71
2021/12/31 02:44:43;;;;;;;2.58;1.27;;;19.10;61.40;;;;;;5015233;28;20034;-71
2021/12/31 02:47:09;;;;;;;2.25;1.10;;;19.00;61.30;;;;;;5015044;28;20022;-71
2021/12/31 02:49:39;;;;;;;2.03;1.27;;;19.10;61.30;;;;;;5015180;28;20018;-71
2021/12/31 02:52:09;;;;;;;1.70;1.00;;;19.00;61.30;;;;;;5015075;28;20430;-71
2021/12/31 02:54:43;;;;;;;2.28;1.15;;;19.00;61.30;;;;;;5015043;28;20113;-71
2021/12/31 02:57:11;;;;;;;1.45;0.90;;;19.10;61.40;;;;;;5014602;28;20115;-71
2021/12/31 02:59:36;;;;;;;1.95;1.13;;;19.00;61.30;;;;;;5014106;28;20026;-71
2021/12/31 03:02:06;;;;;;;2.08;1.20;;;19.10;61.40;;;;;;5014758;28;20494;-71
2021/12/31 03:04:35;;;;;;;1.88;0.88;;;19.00;61.30;;;;;;5014854;28;20066;-71
2021/12/31 03:07:06;;;;;;;2.15;1.27;;;19.00;61.40;;;;;;5013214;28;20069;-71
2021/12/31 03:09:34;;;;;;;3.33;1.20;;;19.10;61.40;;;;;;5014799;28;20026;-71
2021/12/31 03:12:00;;;;;;;1.92;1.00;;;19.00;61.40;;;;;;5014616;28;20382;-71
2021/12/31 03:14:28;;;;;;;1.67;1.00;;;19.00;61.30;;;;;;5014567;28;20026;-71
2021/12/31 03:16:54;;;;;;;2.17;1.13;;;19.10;61.40;;;;;;5014584;28;20026;-71
2021/12/31 03:19:21;;;;;;;3.63;1.10;;;19.00;61.30;;;;;;4997040;28;20030;-71
2021/12/31 03:21:47;;;;;;;3.20;1.25;;;19.00;61.30;;;;;;4993719;28;20050;-71
2021/12/31 03:24:13;;;;;;;2.25;1.10;;;19.00;61.30;;;;;;4994830;28;20034;-71
2021/12/31 03:26:38;;;;;;;2.47;1.00;;;19.00;61.20;;;;;;4994635;28;20527;-71
2021/12/31 03:29:04;;;;;;;2.63;1.00;;;19.00;61.20;;;;;;5003218;28;20048;-71
2021/12/31 03:31:30;;;;;;;1.75;1.13;;;19.00;61.20;;;;;;5014158;28;20018;-71
2021/12/31 03:33:55;;;;;;;2.85;1.10;;;19.00;61.20;;;;;;5014299;28;20045;-71
2021/12/31 03:36:21;;;;;;;2.00;1.00;;;19.00;61.20;;;;;;5012832;28;20061;-71
2021/12/31 03:38:47;;;;;;;2.88;1.10;;;19.00;61.20;;;;;;5014141;28;20029;-71
2021/12/31 03:41:12;;;;;;;3.00;1.17;;;19.00;61.20;;;;;;5012887;28;20018;-71
2021/12/31 03:43:38;;;;;;;1.50;1.10;;;19.00;61.20;;;;;;5012844;28;20018;-71
2021/12/31 03:46:04;;;;;;;4.57;1.40;;;19.00;61.20;;;;;;5012820;28;20022;-71
2021/12/31 03:48:29;;;;;;;2.72;1.10;;;19.00;61.20;;;;;;5013875;28;20026;-71
2021/12/31 03:50:55;;;;;;;1.13;1.00;;;19.00;61.20;;;;;;5013990;28;20048;-71
2021/12/31 03:53:20;;;;;;;2.47;1.20;;;19.00;61.20;;;;;;5013869;28;20367;-71
2021/12/31 03:55:47;;;;;;;1.23;0.95;;;19.00;61.20;;;;;;5013891;28;20025;-71
2021/12/31 03:58:13;;;;;;;3.50;1.20;;;19.00;61.20;;;;;;5013761;28;20029;-71
2021/12/31 04:00:39;;;;;;;1.55;1.10;;;19.00;61.20;;;;;;5013829;28;20030;-71
2021/12/31 04:03:10;;;;;;;2.38;0.93;;;19.00;61.20;;;;;;5013699;28;20520;-71
2021/12/31 04:05:39;;;;;;;3.78;1.13;;;19.00;61.20;;;;;;5013506;28;20029;-71
2021/12/31 04:08:05;;;;;;;1.67;1.30;;;19.00;61.10;;;;;;5012408;28;20033;-71
2021/12/31 04:10:31;;;;;;;1.50;1.00;;;19.00;61.20;;;;;;5013337;28;20025;-71
2021/12/31 04:12:57;;;;;;;2.72;1.42;;;19.00;61.10;;;;;;5013466;28;20049;-71
2021/12/31 04:15:23;;;;;;;2.22;1.20;;;19.00;61.10;;;;;;5013568;28;20518;-71
2021/12/31 04:17:48;;;;;;;3.60;1.08;;;19.00;61.10;;;;;;5008250;28;20109;-71
2021/12/31 04:20:20;;;;;;;1.52;1.15;;;19.00;61.10;;;;;;4992643;28;20513;-71
2021/12/31 04:22:55;;;;;;;1.48;0.90;;;19.00;61.00;;;;;;4993801;28;20026;-71
2021/12/31 04:25:21;;;;;;;1.45;1.00;;;19.00;61.10;;;;;;4993779;28;20033;-71
2021/12/31 04:27:47;;;;;;;1.67;1.08;;;19.00;61.10;;;;;;4993584;28;20042;-71
2021/12/31 04:30:12;;;;;;;1.30;1.02;;;19.00;61.10;;;;;;5011270;28;20414;-71
2021/12/31 04:32:39;;;;;;;3.25;1.17;;;19.00;61.00;;;;;;5013168;28;20079;-71
2021/12/31 04:35:06;;;;;;;2.47;1.40;;;19.00;61.00;;;;;;5013292;28;20018;-71
2021/12/31 04:37:32;;;;;;;2.42;1.17;;;19.00;61.00;;;;;;5012925;28;20022;-71
2021/12/31 04:39:57;;;;;;;3.40;1.30;;;19.00;61.00;;;;;;5013147;28;20022;-71
2021/12/31 04:42:23;;;;;;;2.15;1.05;;;19.00;61.00;;;;;;5012981;28;20022;-71
2021/12/31 04:44:48;;;;;;;2.95;1.10;;;19.00;61.00;;;;;;5013080;28;20124;-71
2021/12/31 04:47:14;;;;;;;1.60;1.30;;;19.00;60.90;;;;;;5012888;28;20080;-71
2021/12/31 04:49:39;;;;;;;2.08;1.10;;;19.00;61.00;;;;;;5013036;28;20018;-71
2021/12/31 04:52:05;;;;;;;2.33;1.15;;;19.00;61.00;;;;;;5012875;28;20022;-71
2021/12/31 04:54:30;;;;;;;2.38;1.30;;;19.00;60.90;;;;;;5013018;28;20034;-71
2021/12/31 04:56:58;;;;;;;1.88;1.30;;;19.00;60.90;;;;;;5011604;28;20128;-71
2021/12/31 04:59:24;;;;;;;2.85;1.40;;;19.00;61.00;;;;;;5012857;28;20435;-71
2021/12/31 05:01:49;;;;;;;2.17;1.30;;;19.00;61.00;;;;;;5011655;28;20057;-71
2021/12/31 05:04:16;;;;;;;2.22;1.15;;;19.00;60.90;;;;;;5012994;28;20475;-71
2021/12/31 05:06:42;;;;;;;1.95;1.10;;;19.00;60.90;;;;;;5012539;28;20042;-71
2021/12/31 05:09:08;;;;;;;1.80;1.15;;;19.00;60.90;;;;;;5012774;28;20026;-71
2021/12/31 05:11:33;;;;;;;1.65;1.10;;;19.00;60.90;;;;;;5012751;28;20109;-71
2021/12/31 05:13:59;;;;;;;2.83;1.20;;;18.90;60.80;;;;;;5011381;28;20018;-71
2021/12/31 05:16:25;;;;;;;3.13;1.10;;;19.00;60.90;;;;;;5012757;28;20022;-71
2021/12/31 05:18:50;;;;;;;1.27;1.00;;;19.00;60.80;;;;;;4998966;28;20056;-71
2021/12/31 05:21:16;;;;;;;1.77;1.08;;;19.00;60.80;;;;;;4993739;28;20030;-71
2021/12/31 05:23:41;;;;;;;2.60;1.52;;;18.90;60.80;;;;;;4997024;28;20027;-71
2021/12/31 05:26:07;;;;;;;2.22;1.40;;;19.00;60.90;;;;;;4997051;28;20115;-71
2021/12/31 05:28:32;;;;;;;2.42;1.15;;;18.90;60.80;;;;;;5000975;28;20029;-71
2021/12/31 05:30:58;;;;;;;2.67;1.38;;;19.00;60.80;;;;;;5016507;28;20028;-71
2021/12/31 05:33:24;;;;;;;2.00;1.38;;;19.00;60.90;;;;;;5016454;28;20018;-71
2021/12/31 05:35:49;;;;;;;2.58;1.35;;;19.00;60.80;;;;;;5015334;28;20528;-71
2021/12/31 05:38:15;;;;;;;3.10;1.40;;;19.00;60.80;;;;;;5016226;28;20036;-71
2021/12/31 05:40:40;;;;;;;3.10;1.30;;;19.00;60.80;;;;;;5016426;28;20096;-71
2021/12/31 05:43:06;;;;;;;2.13;1.25;;;18.90;60.70;;;;;;5016263;28;20033;-71
2021/12/31 05:45:31;;;;;;;1.48;1.20;;;19.00;60.80;;;;;;5016431;28;20452;-71
2021/12/31 05:47:57;;;;;;;1.92;1.15;;;19.00;60.70;;;;;;5016134;28;20030;-71
2021/12/31 05:50:28;;;;;;;2.42;1.30;;;19.00;60.70;;;;;;5015013;28;20018;-71
2021/12/31 05:52:58;;;;;;;1.77;1.38;;;19.00;60.80;;;;;;5016266;28;20026;-71
2021/12/31 05:55:24;;;;;;;2.05;1.20;;;19.00;60.70;;;;;;5016223;28;20022;-71
2021/12/31 05:57:49;;;;;;;2.53;1.15;;;19.00;60.70;;;;;;5016095;28;20026;-72
2021/12/31 06:00:16;;;;;;;2.75;1.58;;;19.00;60.70;;;;;;5014818;28;20049;-71
2021/12/31 06:02:42;;;;;;;2.42;1.40;;;19.00;60.60;;;;;;5015972;28;20026;-71
2021/12/31 06:05:08;;;;;;;1.63;1.20;;;19.10;60.60;;;;;;5015972;28;20371;-71
2021/12/31 06:07:33;;;;;;;2.33;1.23;;;19.10;60.60;;;;;;5015753;28;20046;-71
2021/12/31 06:09:59;;;;;;;2.00;1.27;;;19.10;60.50;;;;;;5031095;28;20133;-71
2021/12/31 06:12:25;;;;;;;1.85;1.23;;;19.10;60.40;;;;;;5014587;28;20029;-71
2021/12/31 06:14:53;;;;;;;2.75;1.20;;;19.20;60.40;;;;;;5015814;28;20072;-71
2021/12/31 06:17:24;;;;;;;3.42;1.20;;;19.20;60.30;;;;;;5014481;28;20526;-71
2021/12/31 06:19:50;;;;;;;2.20;1.20;;;19.20;60.20;;;;;;4996084;28;20475;-71
2021/12/31 06:22:16;;;;;;;2.05;1.40;;;19.20;60.30;;;;;;4996111;28;20109;-71
2021/12/31 06:24:42;;;;;;;2.42;1.45;;;19.30;60.20;;;;;;4995938;28;20578;-71
2021/12/31 06:27:08;;;;;;;2.25;1.13;;;19.30;60.10;;;;;;4995932;28;20126;-71
2021/12/31 06:29:33;;;;;;;2.45;1.20;;;19.30;60.00;;;;;;5008193;28;20097;-71
2021/12/31 06:31:59;;;;;;;1.48;1.17;;;19.40;60.00;;;;;;5015112;28;20106;-71
2021/12/31 06:34:24;;;;;;;2.05;1.30;;;19.40;60.00;;;;;;5015480;28;20049;-71
2021/12/31 06:36:50;;;;;;;2.50;1.10;;;19.40;59.80;;;;;;5015313;28;20033;-71
2021/12/31 06:39:16;;;;;;;2.47;1.10;;;19.40;59.80;;;;;;5015214;28;20025;-71
2021/12/31 06:41:42;;;;;;;2.75;1.08;;;19.40;59.60;;;;;;5015318;28;20030;-71
2021/12/31 06:44:08;;;;;;;1.30;1.00;;;19.40;59.60;;;;;;5015146;28;20038;-71
2021/12/31 06:46:33;;;;;;;2.00;1.10;;;19.40;59.50;;;;;;5015093;28;20032;-71
2021/12/31 06:48:59;;;;;;;1.70;1.08;;;19.40;59.40;;;;;;5015035;28;20029;-71
2021/12/31 06:51:24;;;;;;;2.65;1.05;;;19.50;59.40;;;;;;5013921;28;20053;-71
2021/12/31 06:53:50;;;;;;;2.10;1.00;;;19.50;59.40;;;;;;5015050;28;20026;-71
2021/12/31 06:56:15;;;;;;;2.30;1.30;;;19.50;59.40;;;;;;5015030;28;20518;-71
2021/12/31 06:58:43;;;;;;;2.70;1.17;;;19.50;59.20;;;;;;5013713;28;20030;-71
2021/12/31 07:01:08;;;;;;;2.28;1.20;;;19.50;59.20;;;;;;5015465;28;20022;-71
2021/12/31 07:03:34;;;;;;;1.75;1.45;;;19.50;59.10;;;;;;5015733;28;20025;-71
2021/12/31 07:06:00;;;;;;;2.28;1.10;;;19.50;59.00;;;;;;5014640;28;20030;-71
2021/12/31 07:08:25;;;;;;;2.40;1.30;;;19.50;59.00;;;;;;5014830;28;20084;-71
2021/12/31 07:10:51;;;;;;;1.23;1.00;;;19.50;59.00;;;;;;5014746;28;20475;-71
2021/12/31 07:13:16;;;;;;;1.98;1.20;;;19.60;58.90;;;;;;5013391;28;20018;-71
2021/12/31 07:15:48;;;;;;;2.85;1.20;;;19.60;58.90;;;;;;5013354;28;20026;-71
2021/12/31 07:18:15;;;;;;;2.20;1.05;;;19.60;58.80;;;;;;5006055;28;20031;-71
2021/12/31 07:20:41;;;;;;;2.05;1.17;;;19.60;58.80;;;;;;4995013;28;20026;-71
2021/12/31 07:23:08;;;;;;;1.27;1.00;;;19.60;58.70;;;;;;4993735;28;20057;-71
2021/12/31 07:25:34;;;;;;;1.58;1.00;;;19.60;58.60;;;;;;4994783;28;20105;-71
2021/12/31 07:28:00;;;;;;;1.40;1.00;;;19.50;58.50;;;;;;4993598;28;20117;-71
2021/12/31 07:30:26;;;;;;;2.40;1.30;;;19.60;58.50;;;;;;5014054;28;20580;-71
2021/12/31 07:32:51;;;;;;;2.10;1.10;;;19.50;58.40;;;;;;5014313;28;20022;-71
2021/12/31 07:35:17;;;;;;;2.53;0.95;;;19.60;58.30;;;;;;5014290;28;20030;-71
2021/12/31 07:37:42;;;;;;;3.38;1.10;;;19.60;58.30;;;;;;5014148;28;20100;-71
2021/12/31 07:40:11;;;;;;;2.35;1.00;;;19.60;58.30;;;;;;5014156;28;20033;-71
2021/12/31 07:42:36;;;;;;;3.03;1.27;;;19.60;58.20;;;;;;5014167;28;20056;-71
2021/12/31 07:45:03;;;;;;;3.70;1.30;;;19.60;58.20;;;;;;5013364;28;20457;-71
2021/12/31 07:47:28;;;;;;;2.58;1.20;;;19.60;58.10;;;;;;5014026;28;20115;-71
2021/12/31 07:49:54;;;;;;;3.10;1.20;;;19.60;58.10;;;;;;5014055;28;20050;-71
2021/12/31 07:52:20;;;;;;;1.55;1.00;;;19.60;58.00;;;;;;5012659;28;20022;-71
2021/12/31 07:54:45;;;;;;;2.20;1.08;;;19.60;58.00;;;;;;5014020;28;20022;-71
2021/12/31 07:57:11;;;;;;;1.23;1.02;;;19.60;57.90;;;;;;5013768;28;20022;-71
2021/12/31 07:59:36;;;;;;;1.77;1.05;;;19.60;57.90;;;;;;5013921;28;20376;-71
2021/12/31 08:02:02;;;;;;;2.10;1.30;;;19.60;57.90;;;;;;5013793;28;20105;-71
2021/12/31 08:04:27;;;;;;;2.95;1.13;;;19.60;57.80;;;;;;5013628;28;20398;-71
2021/12/31 08:06:53;;;;;;;1.58;1.08;;;19.60;57.70;;;;;;5013461;28;20052;-71
2021/12/31 08:09:18;;;;;;;1.45;1.08;;;19.60;57.70;;;;;;5013697;28;20026;-71
2021/12/31 08:11:44;;;;;;;2.55;1.23;;;19.60;57.70;;;;;;5013657;28;20026;-71
2021/12/31 08:14:09;;;;;;;1.75;1.15;;;19.60;57.60;;;;;;5013613;28;20037;-71
2021/12/31 08:16:35;;;;;;;1.42;0.95;;;19.60;57.60;;;;;;5012297;28;20125;-71
2021/12/31 08:19:00;;;;;;;1.85;1.00;;;19.60;57.60;;;;;;4998505;28;20022;-71
2021/12/31 08:21:26;;;;;;;2.78;1.10;;;19.60;57.50;;;;;;4992548;28;20053;-71
2021/12/31 08:23:51;;;;;;;1.30;1.10;;;19.70;57.50;;;;;;4993808;28;20030;-71
2021/12/31 08:26:17;;;;;;;1.23;1.00;;;19.60;57.50;;;;;;4993643;28;20027;-71
2021/12/31 08:28:42;;;;;;;4.55;1.00;;;19.60;57.40;;;;;;4999082;28;20104;-71
2021/12/31 08:31:08;;;;;;;1.70;1.00;;;19.60;57.30;;;;;;5011923;28;20470;-71
2021/12/31 08:33:34;;;;;;;1.77;0.98;;;19.60;57.30;;;;;;5013249;28;20037;-71
2021/12/31 08:35:59;;;;;;;1.63;0.98;;;19.60;57.30;;;;;;5013155;28;20052;-71
2021/12/31 08:38:25;;;;;;;2.20;1.10;;;19.60;57.20;;;;;;5013106;28;20022;-71
2021/12/31 08:40:51;;;;;;;1.60;1.02;;;19.70;57.20;;;;;;5013140;28;20109;-71
2021/12/31 08:43:17;;;;;;;1.27;1.05;;;19.60;57.20;;;;;;5013126;28;20030;-71
2021/12/31 08:45:42;;;;;;;2.08;0.90;;;19.70;57.20;;;;;;5013171;28;20061;-71
2021/12/31 08:48:08;;;;;;;2.17;1.17;;;19.70;57.20;;;;;;5012889;28;20422;-71
2021/12/31 08:50:34;;;;;;;3.28;1.20;;;19.60;57.10;;;;;;5011819;28;20025;-71
2021/12/31 08:53:00;;;;;;;2.13;1.10;;;19.70;57.10;;;;;;5012971;28;20018;-71
2021/12/31 08:55:25;;;;;;;3.33;1.20;;;19.70;57.10;;;;;;5012907;28;20482;-71
2021/12/31 08:57:51;;;;;;;2.58;1.15;;;19.70;57.10;;;;;;5012758;28;20026;-71
2021/12/31 09:00:18;;;;;;;1.75;1.10;;;19.70;57.10;;;;;;5012978;28;20113;-71
2021/12/31 09:02:45;;;;;;;2.00;1.20;;;19.70;57.00;;;;;;5011487;28;20026;-71
2021/12/31 09:05:11;;;;;;;2.20;1.20;;;19.70;57.00;;;;;;5012630;28;20020;-71
2021/12/31 09:07:37;;;;;;;2.58;1.40;;;19.70;57.00;;;;;;5012560;28;20490;-71
2021/12/31 09:10:04;;;;;;;2.15;1.00;;;19.70;57.00;;;;;;5012811;28;20028;-71
2021/12/31 09:12:30;;;;;;;2.22;1.13;;;19.70;56.90;;;;;;5011376;28;20037;-71
2021/12/31 09:14:56;;;;;;;3.42;1.10;;;19.70;56.90;;;;;;5011548;28;20014;-71
2021/12/31 09:17:22;;;;;;;2.22;1.27;;;19.70;56.90;;;;;;5011041;28;20026;-71
2021/12/31 09:19:49;;;;;;;2.67;1.10;;;19.70;56.90;;;;;;4993041;28;20689;-71
2021/12/31 09:22:15;;;;;;;1.58;0.98;;;19.70;56.90;;;;;;4992908;28;20440;-71
2021/12/31 09:24:41;;;;;;;3.72;1.00;;;19.70;56.90;;;;;;4992915;28;20061;-71
2021/12/31 09:27:06;;;;;;;2.55;1.00;;;19.70;56.80;;;;;;4992780;28;20065;-71
2021/12/31 09:29:32;;;;;;;1.60;1.10;;;19.70;56.80;;;;;;5005136;28;20379;-71
2021/12/31 09:31:57;;;;;;;1.55;0.93;;;19.70;56.80;;;;;;5011222;28;20029;-71
2021/12/31 09:34:23;;;;;;;0.98;0.88;;;19.70;56.80;;;;;;5012560;28;20106;-71
2021/12/31 09:36:48;;;;;;;1.20;0.90;;;19.70;56.80;;;;;;5012401;28;20030;-71
2021/12/31 09:39:14;;;;;;;1.50;0.93;;;19.70;56.80;;;;;;5012486;28;20101;-71
2021/12/31 09:41:41;;;;;;;1.75;1.23;;;19.70;56.80;;;;;;5012456;28;20026;-71
2021/12/31 09:44:07;;;;;;;2.03;1.00;;;19.70;56.70;;;;;;5012412;28;20030;-71
2021/12/31 09:46:34;;;;;;;1.55;0.95;;;19.70;56.80;;;;;;5012347;28;20026;-71
2021/12/31 09:49:00;;;;;;;2.00;1.10;;;19.70;56.80;;;;;;5011050;28;20021;-71
2021/12/31 09:51:27;;;;;;;1.27;0.90;;;19.70;56.80;;;;;;5012480;28;20022;-71
2021/12/31 09:53:58;;;;;;;1.20;1.10;;;19.70;56.80;;;;;;5012318;28;20022;-71
2021/12/31 09:56:24;;;;;;;2.25;1.13;;;19.70;56.80;;;;;;5012444;28;20094;-71
2021/12/31 09:58:49;;;;;;;2.25;1.00;;;19.70;56.80;;;;;;5010928;28;20117;-71
2021/12/31 10:01:15;;;;;;;2.67;1.15;;;19.70;56.80;;;;;;5002256;28;20038;-71
2021/12/31 10:03:40;;;;;;;1.80;1.10;;;19.70;56.80;;;;;;4992551;28;20034;-71
2021/12/31 10:06:08;;;;;;;1.25;0.85;;;19.70;56.80;;;;;;5003114;28;20062;-71
2021/12/31 10:08:44;;;;;;;2.38;1.20;;;19.70;56.80;;;;;;5026727;28;20036;-71
2021/12/31 10:11:10;;;;;;;1.42;1.10;;;19.80;56.80;;;;;;5014492;28;20521;-71
2021/12/31 10:13:41;;;;;;;1.55;1.10;;;19.70;56.80;;;;;;5015741;28;20022;-71
2021/12/31 10:16:32;;;;;;;1.30;1.02;;;19.70;56.80;;;;;;5014297;28;20022;-71
2021/12/31 10:19:12;;;;;;;2.28;1.17;;;19.80;56.80;;;;;;4999905;28;20041;-71
2021/12/31 10:21:42;;;;;;;2.33;1.02;;;19.80;56.80;;;;;;4996141;28;20056;-71
2021/12/31 10:24:23;;;;;;;2.45;1.13;;;19.80;57.00;;;;;;4993709;28;20037;-71
2021/12/31 10:26:50;;;;;;;2.80;1.20;;;19.80;56.90;;;;;;4995905;28;20027;-71
2021/12/31 10:29:16;;;;;;;1.58;0.80;;;19.80;57.10;;;;;;5004299;28;20120;-71
2021/12/31 10:31:47;;;;;;;1.70;1.05;;;19.80;57.10;;;;;;5007287;28;20054;-71
2021/12/31 10:34:31;;;;;;;1.70;1.05;;;19.80;57.00;;;;;;5007889;28;20022;-71
2021/12/31 10:37:15;;;;;;;1.70;1.00;;;19.80;56.90;;;;;;5008100;28;20429;-71
2021/12/31 10:39:41;;;;;;;1.83;1.00;;;19.80;57.00;;;;;;5003244;28;20475;-72
2021/12/31 10:42:09;;;;;;;1.70;1.00;;;19.70;57.10;;;;;;4995805;28;20097;-71
2021/12/31 10:44:52;;;;;;;1.52;1.00;;;19.70;57.00;;;;;;4995528;28;20030;-71
2021/12/31 10:47:21;;;;;;;2.15;1.00;;;19.80;57.10;;;;;;4995570;28;20034;-71
2021/12/31 10:49:55;;;;;;;1.45;1.00;;;19.80;57.10;;;;;;4999164;28;20386;-71
2021/12/31 10:52:34;;;;;;;1.25;0.85;;;19.80;57.00;;;;;;5008085;28;20033;-71
2021/12/31 10:55:41;;;;;;;1.20;0.90;;;19.80;57.00;;;;;;5015092;28;20501;-71
2021/12/31 10:58:03;;;;;;;2.63;1.10;;;19.80;57.10;;;;;;5012790;28;20026;-72
2021/12/31 11:00:34;;;;;;;1.77;1.13;;;19.80;57.20;;;;;;5015067;28;20025;-71
2021/12/31 11:03:00;;;;;;;2.17;1.00;;;19.80;57.10;;;;;;5014850;28;20105;-71
2021/12/31 11:05:27;;;;;;;2.63;1.00;;;19.80;57.10;;;;;;5015008;28;20021;-71
2021/12/31 11:07:53;;;;;;;1.63;1.15;;;19.80;57.20;;;;;;5014679;28;20410;-71
2021/12/31 11:10:25;;;;;;;1.50;0.95;;;19.80;57.10;;;;;;5014927;28;20522;-71
2021/12/31 11:12:52;;;;;;;1.20;0.90;;;19.80;57.00;;;;;;5013478;28;20025;-71
2021/12/31 11:15:18;;;;;;;1.05;0.90;;;19.80;57.00;;;;;;5014877;28;20411;-71
2021/12/31 11:17:43;;;;;;;1.20;0.90;;;19.80;57.00;;;;;;5010143;28;20049;-71
2021/12/31 11:20:10;;;;;;;1.02;0.90;;;19.80;57.00;;;;;;4993884;28;20026;-72
2021/12/31 11:22:37;;;;;;;2.13;1.10;;;19.80;57.00;;;;;;4995035;28;20479;-71
2021/12/31 11:25:19;;;;;;;1.20;0.90;;;19.90;57.00;;;;;;4994936;28;20050;-71
2021/12/31 11:27:47;;;;;;;1.83;1.23;;;19.90;56.90;;;;;;4994848;28;20018;-71
2021/12/31 11:30:37;;;;;;;2.28;1.10;;;19.90;57.10;;;;;;5012356;28;20018;-71
2021/12/31 11:33:17;;;;;;;1.48;1.08;;;19.90;56.90;;;;;;5014434;28;20029;-71
2021/12/31 11:36:09;;;;;;;1.60;1.15;;;19.90;56.90;;;;;;5013203;28;20026;-71
2021/12/31 11:38:39;;;;;;;1.40;0.75;;;19.90;56.80;;;;;;4996551;28;20474;-71
2021/12/31 11:41:11;;;;;;;1.25;0.90;;;19.80;57.00;;;;;;5012978;28;20121;-71
2021/12/31 11:43:41;;;;;;;1.30;1.00;;;19.90;57.10;;;;;;5014154;28;20056;-71
2021/12/31 11:46:09;;;;;;;2.75;1.10;;;19.90;57.10;;;;;;5014215;28;20501;-71
2021/12/31 11:48:47;;;;;;;1.23;0.85;;;19.90;57.00;;;;;;5013940;28;20525;-71
2021/12/31 11:51:16;;;;;;;1.85;1.08;;;19.90;56.90;;;;;;5014130;28;20502;-71
2021/12/31 11:54:00;;;;;;;1.58;1.02;;;19.90;57.00;;;;;;5013923;28;20021;-71
2021/12/31 11:56:38;;;;;;;1.40;0.85;;;19.90;57.00;;;;;;5013962;28;20037;-71
2021/12/31 11:59:16;;;;;;;2.00;1.08;;;19.90;57.00;;;;;;5012555;28;20558;-71
2021/12/31 12:01:52;;;;;;;1.33;0.90;;;19.90;57.00;;;;;;5013924;28;20026;-71
2021/12/31 12:04:22;;;;;;;1.20;0.80;;;19.90;57.10;;;;;;5013757;28;20105;-71
2021/12/31 12:06:53;;;;;;;1.55;0.95;;;19.90;57.10;;;;;;5013537;28;20049;-71
2021/12/31 12:09:19;;;;;;;1.15;0.93;;;19.90;57.10;;;;;;5013659;28;20494;-71
2021/12/31 12:12:07;;;;;;;1.80;1.30;;;19.90;57.10;;;;;;5013720;28;20052;-71
2021/12/31 12:14:41;;;;;;;2.05;0.88;;;20.00;57.00;;;;;;5012209;28;20026;-71
2021/12/31 12:17:12;;;;;;;1.85;1.17;;;20.00;57.10;;;;;;5013541;28;20030;-71
2021/12/31 12:19:47;;;;;;;1.13;1.02;;;20.00;57.20;;;;;;4993958;28;20467;-71
2021/12/31 12:22:25;;;;;;;4.03;1.58;;;20.00;57.10;;;;;;4993977;28;20037;-71
2021/12/31 12:24:51;;;;;;;1.00;0.90;;;20.00;57.10;;;;;;4993791;28;20034;-71
2021/12/31 12:27:17;;;;;;;1.58;1.17;;;20.00;57.20;;;;;;4993777;28;20061;-71
2021/12/31 12:29:44;;;;;;;1.88;1.00;;;20.00;57.20;;;;;;5007158;28;20025;-71
2021/12/31 12:32:11;;;;;;;1.98;0.98;;;20.00;57.10;;;;;;5011902;28;20422;-72
2021/12/31 12:34:36;;;;;;;2.15;1.30;;;20.00;57.10;;;;;;5013195;28;20137;-71
2021/12/31 12:37:03;;;;;;;1.80;0.95;;;20.00;57.10;;;;;;5013172;28;20033;-71
2021/12/31 12:39:30;;;;;;;1.75;0.95;;;20.00;57.20;;;;;;5011690;28;20029;-71
2021/12/31 12:41:56;;;;;;;1.85;1.20;;;20.00;57.10;;;;;;5012031;28;20156;-71
2021/12/31 12:44:21;;;;;;;1.25;1.00;;;20.00;57.10;;;;;;5013000;28;20033;-71
2021/12/31 12:46:57;;;;;;;1.05;0.93;;;20.00;57.10;;;;;;5011843;28;20022;-71
2021/12/31 12:49:26;;;;;;;1.70;1.10;;;20.00;57.00;;;;;;5012922;28;20026;-71
2021/12/31 12:51:54;;;;;;;1.65;0.93;;;20.00;57.20;;;;;;5012090;28;20014;-71